Time;durP1;ratioP1;P1;durP2;ratioP2;P2;SDS_P1;SDS_P2;PMS_P1;PMS_P2;Temp;Humidity;BMP_temperature;BMP_pressure;BME280_temperature;BME280_humidity;BME280_pressure;Samples;Min_cycle;Max_cycle;Signal;HPM_P1;HPM_P2
2022/01/15 00:01:51;;;;;;;0.25;0.00;;;8.80;72.80;;;;;;20904968;28;20571;-54
2022/01/15 00:11:54;;;;;;;0.00;0.00;;;9.10;72.40;;;;;;20903901;28;20060;-54
2022/01/15 00:21:56;;;;;;;0.00;0.00;;;8.80;72.30;;;;;;20903878;28;20033;-55
2022/01/15 00:32:00;;;;;;;0.00;0.00;;;8.60;73.80;;;;;;20902586;28;20049;-53
2022/01/15 00:42:05;;;;;;;0.10;0.00;;;8.50;73.50;;;;;;20901408;28;20401;-54
2022/01/15 00:52:08;;;;;;;0.05;0.00;;;8.50;73.80;;;;;;20900849;28;20075;-54
2022/01/15 01:02:11;;;;;;;0.00;0.00;;;8.40;74.40;;;;;;20901688;28;20499;-57
2022/01/15 01:33:28;;;;;;;0.38;0.00;;;7.60;76.30;;;;;;20629336;28;20058;-53
2022/01/15 01:53:39;;;;;;;0.00;0.00;;;7.70;75.30;;;;;;20659678;28;20530;-53
2022/01/15 02:03:42;;;;;;;0.20;0.00;;;7.40;77.30;;;;;;20774826;28;20075;-54
2022/01/15 02:13:46;;;;;;;0.00;0.00;;;6.60;78.90;;;;;;20913631;28;20083;-56
2022/01/15 02:23:52;;;;;;;0.05;0.00;;;6.20;82.20;;;;;;20912634;28;20356;-54
2022/01/15 02:34:00;;;;;;;0.00;0.00;;;6.00;81.10;;;;;;20896272;28;20403;-54
2022/01/15 02:44:16;;;;;;;0.03;0.00;;;6.30;80.80;;;;;;20894891;28;20041;-55
2022/01/15 02:54:19;;;;;;;0.05;0.00;;;6.80;77.00;;;;;;20893757;28;20067;-52
2022/01/15 03:04:22;;;;;;;0.13;0.00;;;7.10;77.90;;;;;;20892732;28;20068;-54
2022/01/15 03:14:25;;;;;;;0.10;0.00;;;7.20;75.80;;;;;;20892776;28;20071;-56
2022/01/15 03:24:28;;;;;;;0.03;0.00;;;7.40;75.40;;;;;;20891938;28;20110;-54
2022/01/15 03:34:30;;;;;;;0.13;0.00;;;7.70;73.90;;;;;;20890446;28;20059;-55
2022/01/15 03:44:33;;;;;;;0.00;0.00;;;7.30;75.90;;;;;;20890174;28;20098;-56
2022/01/15 03:54:36;;;;;;;0.00;0.00;;;6.80;77.90;;;;;;20888610;28;20037;-55
2022/01/15 04:04:39;;;;;;;0.03;0.00;;;6.30;80.90;;;;;;20888121;28;20469;-53
2022/01/15 04:14:41;;;;;;;0.00;0.00;;;5.60;82.90;;;;;;20904272;28;20464;-53
2022/01/15 04:24:47;;;;;;;0.10;0.00;;;5.80;81.50;;;;;;20887417;28;20060;-53
2022/01/15 04:34:50;;;;;;;0.10;0.00;;;6.10;80.90;;;;;;20885551;28;20041;-54
2022/01/15 04:44:52;;;;;;;0.00;0.00;;;6.00;80.50;;;;;;20884844;28;20078;-56
2022/01/15 04:54:55;;;;;;;0.00;0.00;;;5.90;81.30;;;;;;20885345;28;20033;-54
2022/01/15 05:04:58;;;;;;;0.73;0.00;;;5.50;85.40;;;;;;20884305;28;20037;-54
2022/01/15 05:15:00;;;;;;;0.00;0.00;;;4.80;89.30;;;;;;20867340;28;20041;-53
2022/01/15 05:25:07;;;;;;;0.00;0.00;;;4.50;88.80;;;;;;20884528;28;20110;-55
2022/01/15 05:35:10;;;;;;;0.03;0.00;;;4.60;88.00;;;;;;20900027;28;20040;-52
2022/01/15 05:45:14;;;;;;;0.00;0.00;;;4.50;87.90;;;;;;20882825;28;20404;-53
2022/01/15 05:55:17;;;;;;;0.00;0.00;;;4.50;89.20;;;;;;20898352;28;20102;-52
2022/01/15 06:05:20;;;;;;;0.00;0.00;;;4.60;87.50;;;;;;20898970;28;20542;-52
2022/01/15 06:15:23;;;;;;;0.08;0.00;;;4.60;86.30;;;;;;20896541;28;20064;-52
2022/01/15 06:25:25;;;;;;;0.00;0.00;;;4.60;88.00;;;;;;20896058;28;20408;-52
2022/01/15 06:35:28;;;;;;;0.30;0.20;;;4.30;89.20;;;;;;20895067;28;20476;-55
2022/01/15 06:45:33;;;;;;;0.00;0.00;;;4.30;89.30;;;;;;20894034;28;20469;-52
2022/01/15 06:55:35;;;;;;;0.03;0.00;;;4.30;89.30;;;;;;20910210;28;20045;-53
2022/01/15 07:05:38;;;;;;;0.00;0.00;;;4.30;89.50;;;;;;20893585;28;20433;-52
2022/01/15 07:15:41;;;;;;;0.00;0.00;;;4.30;89.80;;;;;;20894195;28;20060;-54
2022/01/15 07:25:43;;;;;;;1.58;0.80;;;4.20;89.30;;;;;;20891405;28;20102;-51
2022/01/15 07:35:48;;;;;;;1.77;0.77;;;5.30;82.80;;;;;;20890379;28;20098;-54
2022/01/15 07:45:51;;;;;;;0.10;0.00;;;5.90;81.70;;;;;;20890113;28;20041;-52
2022/01/15 07:55:53;;;;;;;0.10;0.00;;;6.00;82.30;;;;;;20888964;28;20041;-56
2022/01/15 08:05:57;;;;;;;0.10;0.00;;;7.10;77.70;;;;;;20888611;28;20081;-55
2022/01/15 08:16:04;;;;;;;0.15;0.00;;;7.90;78.10;;;;;;20887222;28;20083;-54
2022/01/15 08:26:07;;;;;;;0.05;0.00;;;8.10;75.00;;;;;;20887065;28;20061;-51
2022/01/15 08:36:10;;;;;;;0.90;0.03;;;9.00;72.80;;;;;;20885901;28;20041;-56
2022/01/15 08:46:13;;;;;;;0.05;0.00;;;10.00;71.90;;;;;;20885371;28;20037;-56
2022/01/15 08:56:17;;;;;;;0.00;0.00;;;10.10;71.40;;;;;;20884891;28;20484;-51
2022/01/15 09:06:20;;;;;;;0.00;0.00;;;10.30;72.50;;;;;;20883796;28;20033;-56
2022/01/15 09:16:23;;;;;;;0.00;0.00;;;10.40;69.60;;;;;;20883576;28;20618;-54
2022/01/15 09:36:47;;;;;;;0.63;0.00;;;11.50;68.80;;;;;;20882341;28;20437;-54
2022/01/15 09:46:51;;;;;;;0.10;0.00;;;11.80;69.20;;;;;;20882481;28;20036;-55
2022/01/15 09:56:53;;;;;;;0.10;0.00;;;12.20;66.70;;;;;;20881216;28;20087;-51
2022/01/15 10:07:07;;;;;;;0.10;0.00;;;12.50;67.40;;;;;;20899189;28;20067;-54
2022/01/15 10:17:26;;;;;;;0.10;0.00;;;12.90;67.60;;;;;;20892043;28;20087;-54
2022/01/15 10:27:39;;;;;;;0.10;0.00;;;13.10;67.50;;;;;;20896051;28;20044;-55
2022/01/15 10:37:54;;;;;;;0.10;0.00;;;13.40;67.40;;;;;;20895411;28;20037;-55
2022/01/15 10:47:57;;;;;;;0.40;0.10;;;13.50;66.70;;;;;;20911378;28;20062;-53
2022/01/15 10:58:06;;;;;;;0.60;0.20;;;13.50;66.80;;;;;;20893301;28;20403;-54
2022/01/15 11:08:15;;;;;;;0.40;0.10;;;13.30;68.80;;;;;;20892949;28;20447;-54
2022/01/15 11:18:19;;;;;;;0.80;0.20;;;13.10;69.50;;;;;;20891788;28;20037;-55
2022/01/15 11:28:25;;;;;;;0.55;0.10;;;13.10;69.20;;;;;;20908161;28;20052;-58
2022/01/15 11:38:41;;;;;;;0.32;0.22;;;13.30;68.40;;;;;;20890933;28;20109;-54
2022/01/15 11:48:44;;;;;;;0.70;0.50;;;13.20;68.00;;;;;;20891245;28;20041;-54
2022/01/15 11:58:46;;;;;;;0.65;0.30;;;13.20;68.70;;;;;;20888663;28;20063;-57
2022/01/15 12:08:50;;;;;;;0.52;0.32;;;13.10;66.90;;;;;;20888130;28;20029;-54
2022/01/15 12:18:57;;;;;;;1.27;0.40;;;13.00;68.60;;;;;;20887844;28;20561;-56
2022/01/15 12:29:00;;;;;;;1.42;0.68;;;12.80;70.60;;;;;;20886885;28;20052;-54
2022/01/15 12:39:03;;;;;;;1.30;0.80;;;12.90;69.50;;;;;;20885413;28;20091;-57
2022/01/15 12:49:08;;;;;;;2.15;0.82;;;13.00;71.70;;;;;;20885719;28;20033;-56
2022/01/15 12:59:10;;;;;;;1.00;0.75;;;12.90;69.90;;;;;;20803434;28;20063;-57
2022/01/15 13:09:14;;;;;;;2.50;0.75;;;13.00;69.90;;;;;;20802529;28;20420;-57
2022/01/15 13:19:17;;;;;;;1.63;0.93;;;12.70;71.50;;;;;;20786436;28;20037;-56
2022/01/15 13:29:22;;;;;;;0.98;0.50;;;12.20;71.20;;;;;;20800739;28;20057;-56
2022/01/15 13:39:25;;;;;;;1.20;0.70;;;11.50;73.80;;;;;;20854870;28;20540;-58
2022/01/15 14:00:04;;;;;;;1.90;0.80;;;10.30;74.40;;;;;;20644314;28;20148;-54
2022/01/15 14:10:15;;;;;;;1.45;0.80;;;10.00;75.90;;;;;;20643982;28;20042;-57
2022/01/15 14:20:38;;;;;;;1.30;0.90;;;9.80;76.70;;;;;;20643097;28;20593;-55
2022/01/15 14:30:44;;;;;;;3.15;1.40;;;9.60;76.00;;;;;;20754034;28;20438;-53
2022/01/15 14:40:46;;;;;;;3.88;1.92;;;9.20;77.60;;;;;;20928276;28;20037;-54
2022/01/15 14:50:50;;;;;;;4.15;1.83;;;8.70;77.80;;;;;;20910690;28;20033;-53
2022/01/15 15:00:54;;;;;;;3.97;2.08;;;8.20;79.00;;;;;;20909163;28;20102;-55
2022/01/15 15:10:57;;;;;;;2.65;0.93;;;7.80;82.00;;;;;;20925606;28;20086;-56
2022/01/15 15:21:01;;;;;;;1.27;0.70;;;7.50;83.90;;;;;;20908157;28;20485;-56
2022/01/15 15:31:09;;;;;;;3.35;0.77;;;6.70;87.20;;;;;;20907488;28;20052;-53
2022/01/15 15:41:13;;;;;;;3.17;0.80;;;5.80;89.60;;;;;;20907096;28;20554;-56
2022/01/15 15:51:18;;;;;;;1.83;0.60;;;5.40;92.00;;;;;;20905631;28;20481;-55
2022/01/15 16:01:21;;;;;;;1.17;0.70;;;4.90;92.30;;;;;;20905145;28;20442;-53
2022/01/15 16:11:26;;;;;;;0.85;0.32;;;4.60;94.20;;;;;;20906084;28;20365;-55
2022/01/15 16:21:29;;;;;;;0.65;0.30;;;4.40;92.90;;;;;;20904319;28;20477;-56
2022/01/15 16:31:33;;;;;;;1.70;0.70;;;4.10;93.80;;;;;;20902814;28;20053;-52
2022/01/15 16:41:36;;;;;;;0.70;0.32;;;4.00;95.20;;;;;;20902021;28;20041;-56
2022/01/15 16:51:39;;;;;;;0.93;0.30;;;3.70;95.00;;;;;;20918148;28;20059;-51
2022/01/15 17:01:42;;;;;;;1.42;0.30;;;3.50;94.10;;;;;;20901733;28;20162;-52
2022/01/15 17:11:47;;;;;;;1.48;0.30;;;3.30;95.90;;;;;;20900206;28;20055;-53
2022/01/15 17:21:51;;;;;;;1.27;0.60;;;3.20;96.50;;;;;;20899507;28;20033;-52
2022/01/15 17:31:54;;;;;;;1.65;0.57;;;3.10;96.30;;;;;;20899931;28;20212;-52
2022/01/15 17:41:57;;;;;;;2.05;0.70;;;3.00;95.80;;;;;;20900276;28;20090;-51
2022/01/15 17:51:59;;;;;;;1.33;0.40;;;2.80;96.90;;;;;;20898580;28;20041;-53
2022/01/15 18:02:03;;;;;;;2.80;1.25;;;2.80;95.40;;;;;;20899272;28;20530;-52
2022/01/15 18:12:07;;;;;;;3.05;1.40;;;2.80;97.00;;;;;;20914696;28;20033;-52
2022/01/15 18:22:11;;;;;;;2.42;1.23;;;2.90;96.50;;;;;;20897298;28;20029;-55
2022/01/15 18:32:14;;;;;;;3.72;1.65;;;2.70;97.30;;;;;;20880851;28;20033;-51
2022/01/15 18:42:16;;;;;;;2.53;1.20;;;2.60;97.40;;;;;;20895280;28;20033;-55
2022/01/15 18:52:19;;;;;;;2.00;0.88;;;2.60;96.60;;;;;;20894366;28;20110;-53
2022/01/15 19:02:21;;;;;;;1.95;1.20;;;2.60;97.10;;;;;;20893298;28;20430;-53
2022/01/15 19:12:24;;;;;;;0.40;0.10;;;2.40;97.50;;;;;;20894377;28;20400;-53
2022/01/15 19:22:27;;;;;;;0.40;0.20;;;2.50;96.50;;;;;;20891785;28;20048;-52
2022/01/15 19:32:31;;;;;;;0.40;0.10;;;2.30;96.90;;;;;;20891126;28;20091;-56
2022/01/15 19:42:34;;;;;;;1.05;0.40;;;2.10;96.80;;;;;;20890427;28;20252;-54
2022/01/15 19:52:37;;;;;;;0.38;0.10;;;2.20;96.70;;;;;;20888998;28;20094;-52
2022/01/15 20:02:40;;;;;;;0.10;0.08;;;2.30;95.20;;;;;;20889473;28;20086;-52
2022/01/15 20:12:43;;;;;;;0.65;0.20;;;2.50;94.90;;;;;;20888423;28;20033;-53
2022/01/15 20:22:46;;;;;;;0.95;0.50;;;2.20;95.20;;;;;;20887287;28;20103;-52
2022/01/15 20:32:51;;;;;;;8.13;3.97;;;1.90;95.90;;;;;;20886134;28;20041;-54
2022/01/15 20:42:56;;;;;;;1.58;0.63;;;1.90;96.00;;;;;;20885541;28;20381;-53
2022/01/15 20:53:00;;;;;;;1.48;0.63;;;1.90;96.50;;;;;;20884549;28;20033;-55
2022/01/15 21:03:03;;;;;;;1.70;0.63;;;1.90;96.60;;;;;;20883703;28;20067;-51
2022/01/15 21:13:06;;;;;;;1.65;0.55;;;2.00;96.50;;;;;;20883461;28;20110;-52
2022/01/15 21:23:09;;;;;;;1.80;0.77;;;1.90;96.50;;;;;;20882822;28;20049;-53
2022/01/15 21:33:12;;;;;;;2.40;1.05;;;1.70;96.40;;;;;;20882399;28;20033;-54
2022/01/15 21:43:16;;;;;;;2.97;1.15;;;1.70;97.10;;;;;;20881905;28;20038;-53
2022/01/15 21:53:19;;;;;;;2.33;1.00;;;1.60;97.70;;;;;;20882182;28;20033;-53
2022/01/15 22:03:22;;;;;;;2.03;1.23;;;1.50;97.10;;;;;;20881502;28;20543;-53
2022/01/15 22:13:28;;;;;;;2.33;1.30;;;1.70;96.70;;;;;;20893195;28;20045;-52
2022/01/15 22:23:30;;;;;;;1.85;0.90;;;1.60;97.80;;;;;;20896848;28;20057;-52
2022/01/15 22:33:38;;;;;;;1.52;0.80;;;1.40;97.60;;;;;;20896046;28;20134;-51
2022/01/15 22:43:49;;;;;;;2.38;1.20;;;1.20;97.90;;;;;;20877274;28;20032;-51
2022/01/15 22:53:51;;;;;;;2.53;1.20;;;1.20;99.00;;;;;;20894318;28;20032;-51
2022/01/15 23:03:55;;;;;;;2.50;1.13;;;1.00;98.30;;;;;;20893994;28;20389;-52
2022/01/15 23:14:01;;;;;;;2.45;1.17;;;1.00;99.40;;;;;;20892901;28;20079;-54
2022/01/15 23:24:05;;;;;;;2.17;1.13;;;1.00;98.70;;;;;;20891721;28;20057;-53
2022/01/15 23:34:08;;;;;;;2.42;0.73;;;1.00;98.80;;;;;;20891460;28;20045;-52
2022/01/15 23:44:22;;;;;;;1.25;0.60;;;0.90;98.70;;;;;;20890604;28;20485;-52
2022/01/15 23:54:25;;;;;;;2.78;0.70;;;0.80;99.10;;;;;;20889465;28;20142;-52
